Shogun — WDC4322 — position and weather

sailwx.info

Track history (hours):
 
Tides and Currents Weather Stations Pressure Air Temp Water Temp Dewpoint Dewpoint Depression Visibility Wind Speed Wind Dir Waves Ship Positions

Shogun

Owner: Shogun, San Diego, CA. More information available from US FCC via Universal Licensing System and Coast Guard Vessel Documentation Center.

Last reported at 2017-Aug-22 17:41 UTC. Time now 2017-Sep-25 06:36 UTC.
Position N 32°41' W 117°14'.
Warning: this ship's position is 33 days out of date.

Type: Ship. MMSI: 368453000.

Date/timePositionNaut miles runAvg speedWind from/ knotsBaromVisibWave heightAir tempDewpointWater temp
2017-Aug-22 17:41N 32°41' W 117°14'0 1.4
2017-Aug-22 17:30N 32°42' W 117°14'0 0.0
2017-Aug-22 16:59N 32°42' W 117°14'0 0.0
2017-Aug-22 16:31N 32°42' W 117°14'2 3.3
2017-Aug-22 15:56N 32°43' W 117°14'0 0.0
2017-Aug-22 15:19N 32°43' W 117°14'0 0.1
2017-Aug-22 14:55N 32°43' W 117°14'0 0.4
2017-Aug-22 14:30N 32°43' W 117°14'0 0.3
2017-Aug-22 13:56N 32°43' W 117°14'0 0.0
2017-Aug-22 13:30N 32°43' W 117°14'0 0.0
2017-Aug-22 13:00N 32°43' W 117°14'0 0.0
2017-Aug-22 12:25N 32°43' W 117°14'1 1.7
2017-Aug-22 12:01N 32°43' W 117°13'0 0.0
2017-Aug-22 11:30N 32°43' W 117°13'0 0.0
2017-Aug-22 11:00N 32°43' W 117°13'0 0.0
2017-Aug-22 10:30N 32°43' W 117°13'0 0.0
2017-Aug-22 10:00N 32°43' W 117°13'0 0.0
2017-Aug-22 09:30N 32°43' W 117°13'0 0.0
2017-Aug-22 08:58N 32°43' W 117°13'1 3.2
2017-Aug-22 08:30N 32°42' W 117°14'4 8.6
2017-Aug-22 08:00N 32°38' W 117°14'  
2017-Aug-19 20:51N 32°26' W 117°15'2 1.3
2017-Aug-19 19:13N 32°27' W 117°14'1 3.4
2017-Aug-19 18:59N 32°28' W 117°14'11 9.6
2017-Aug-19 17:50N 32°39' W 117°14'3 9.9
2017-Aug-19 17:31N 32°42' W 117°14'1 1.9
2017-Aug-19 16:56N 32°43' W 117°14'0 0.0
2017-Aug-19 16:30N 32°43' W 117°14'0 0.0
2017-Aug-19 15:58N 32°43' W 117°14'0 0.0
2017-Aug-19 15:30N 32°43' W 117°14'0 0.0
2017-Aug-19 15:00N 32°43' W 117°14'2 1.8
2017-Aug-19 13:59N 32°42' W 117°14'1 2.4
2017-Aug-19 13:30N 32°43' W 117°13'1 1.7
2017-Aug-19 13:00N 32°43' W 117°14'0 0.0
2017-Aug-19 12:30N 32°43' W 117°14'0 0.2
2017-Aug-19 12:00N 32°43' W 117°13'1 1.5
2017-Aug-19 11:30N 32°43' W 117°13'2 3.8
2017-Aug-19 11:00N 32°42' W 117°14'5 9.3
2017-Aug-19 10:30N 32°37' W 117°13'  
Track history (hours):
 
Tides and Currents Weather Stations Pressure Air Temp Water Temp Dewpoint Dewpoint Depression Visibility Wind Speed Wind Dir Waves Ship Positions

Shogun

Owner: Shogun, San Diego, CA. More information available from US FCC via Universal Licensing System and Coast Guard Vessel Documentation Center.

Last reported at 2017-Aug-22 17:41 UTC. Time now 2017-Sep-25 06:36 UTC.
Position N 32°41' W 117°14'.
Warning: this ship's position is 33 days out of date.

Type: Ship. MMSI: 368453000.

Date/timePositionNaut miles runAvg speedWind from/ knotsBaromVisibWave heightAir tempDewpointWater temp
2017-Aug-22 17:41N 32°41' W 117°14'0 1.4
2017-Aug-22 17:30N 32°42' W 117°14'0 0.0
2017-Aug-22 16:59N 32°42' W 117°14'0 0.0
2017-Aug-22 16:31N 32°42' W 117°14'2 3.3
2017-Aug-22 15:56N 32°43' W 117°14'0 0.0
2017-Aug-22 15:19N 32°43' W 117°14'0 0.1
2017-Aug-22 14:55N 32°43' W 117°14'0 0.4
2017-Aug-22 14:30N 32°43' W 117°14'0 0.3
2017-Aug-22 13:56N 32°43' W 117°14'0 0.0
2017-Aug-22 13:30N 32°43' W 117°14'0 0.0
2017-Aug-22 13:00N 32°43' W 117°14'0 0.0
2017-Aug-22 12:25N 32°43' W 117°14'1 1.7
2017-Aug-22 12:01N 32°43' W 117°13'0 0.0
2017-Aug-22 11:30N 32°43' W 117°13'0 0.0
2017-Aug-22 11:00N 32°43' W 117°13'0 0.0
2017-Aug-22 10:30N 32°43' W 117°13'0 0.0
2017-Aug-22 10:00N 32°43' W 117°13'0 0.0
2017-Aug-22 09:30N 32°43' W 117°13'0 0.0
2017-Aug-22 08:58N 32°43' W 117°13'1 3.2
2017-Aug-22 08:30N 32°42' W 117°14'4 8.6
2017-Aug-22 08:00N 32°38' W 117°14'  
2017-Aug-19 20:51N 32°26' W 117°15'2 1.3
2017-Aug-19 19:13N 32°27' W 117°14'1 3.4
2017-Aug-19 18:59N 32°28' W 117°14'11 9.6
2017-Aug-19 17:50N 32°39' W 117°14'3 9.9
2017-Aug-19 17:31N 32°42' W 117°14'1 1.9
2017-Aug-19 16:56N 32°43' W 117°14'0 0.0
2017-Aug-19 16:30N 32°43' W 117°14'0 0.0
2017-Aug-19 15:58N 32°43' W 117°14'0 0.0
2017-Aug-19 15:30N 32°43' W 117°14'0 0.0
2017-Aug-19 15:00N 32°43' W 117°14'2 1.8
2017-Aug-19 13:59N 32°42' W 117°14'1 2.4
2017-Aug-19 13:30N 32°43' W 117°13'1 1.7
2017-Aug-19 13:00N 32°43' W 117°14'0 0.0
2017-Aug-19 12:30N 32°43' W 117°14'0 0.2
2017-Aug-19 12:00N 32°43' W 117°13'1 1.5
2017-Aug-19 11:30N 32°43' W 117°13'2 3.8
2017-Aug-19 11:00N 32°42' W 117°14'5 9.3
2017-Aug-19 10:30N 32°37' W 117°13'  

Dump ship's entire track history